sensor_id;sensor_type;location;lat;lon;timestamp;pressure;altitude;pressure_sealevel;temperature;humidity
33506;BME280;19843;51.040;13.782;2022-09-12T00:00:40;17355.16;;;15.72;100.00
33506;BME280;19843;51.040;13.782;2022-09-12T00:03:08;17689.75;;;15.66;100.00
33506;BME280;19843;51.040;13.782;2022-09-12T00:05:40;18021.22;;;15.51;100.00
33506;BME280;19843;51.040;13.782;2022-09-12T00:08:10;18023.16;;;15.57;100.00
33506;BME280;19843;51.040;13.782;2022-09-12T00:10:38;17689.41;;;15.65;100.00
33506;BME280;19843;51.040;13.782;2022-09-12T00:13:06;17687.81;;;15.60;100.00
33506;BME280;19843;51.040;13.782;2022-09-12T00:15:36;17688.31;;;15.61;100.00
33506;BME280;19843;51.040;13.782;2022-09-12T00:18:04;17353.56;;;15.67;100.00
33506;BME280;19843;51.040;13.782;2022-09-12T00:20:32;17018.84;;;15.72;100.00
33506;BME280;19843;51.040;13.782;2022-09-12T00:23:00;17018.38;;;15.70;100.00
33506;BME280;19843;51.040;13.782;2022-09-12T00:25:28;17354.38;;;15.69;100.00
33506;BME280;19843;51.040;13.782;2022-09-12T00:27:56;17353.09;;;15.65;100.00
33506;BME280;19843;51.040;13.782;2022-09-12T00:30:24;17017.75;;;15.68;100.00
33506;BME280;19843;51.040;13.782;2022-09-12T00:32:51;17016.69;;;15.65;100.00
33506;BME280;19843;51.040;13.782;2022-09-12T00:35:19;16681.19;;;15.67;100.00
33506;BME280;19843;51.040;13.782;2022-09-12T00:37:47;17016.06;;;15.62;100.00
33506;BME280;19843;51.040;13.782;2022-09-12T00:40:14;16345.41;;;15.69;100.00
33506;BME280;19843;51.040;13.782;2022-09-12T00:42:43;16680.75;;;15.66;100.00
33506;BME280;19843;51.040;13.782;2022-09-12T00:45:19;16343.50;;;15.62;100.00
33506;BME280;19843;51.040;13.782;2022-09-12T00:47:48;16342.31;;;15.58;100.00
33506;BME280;19843;51.040;13.782;2022-09-12T00:50:16;16342.91;;;15.60;100.00
33506;BME280;19843;51.040;13.782;2022-09-12T00:52:48;16006.75;;;15.60;100.00
33506;BME280;19843;51.040;13.782;2022-09-12T00:55:20;16005.59;;;15.56;100.00
33506;BME280;19843;51.040;13.782;2022-09-12T00:57:52;16006.03;;;15.57;100.00
33506;BME280;19843;51.040;13.782;2022-09-12T01:00:22;16336.81;;;15.39;100.00
33506;BME280;19843;51.040;13.782;2022-09-12T01:02:52;16335.78;;;15.36;100.00
33506;BME280;19843;51.040;13.782;2022-09-12T01:05:21;16336.06;;;15.37;100.00
33506;BME280;19843;51.040;13.782;2022-09-12T01:07:49;16335.16;;;15.34;100.00
33506;BME280;19843;51.040;13.782;2022-09-12T01:10:18;16334.00;;;15.30;100.00
33506;BME280;19843;51.040;13.782;2022-09-12T01:12:46;16668.50;;;15.25;100.00
33506;BME280;19843;51.040;13.782;2022-09-12T01:15:15;16331.63;;;15.21;100.00
33506;BME280;19843;51.040;13.782;2022-09-12T01:17:55;16332.94;;;15.26;100.00
33506;BME280;19843;51.040;13.782;2022-09-12T01:20:49;16997.13;;;15.00;100.00
33506;BME280;19843;51.040;13.782;2022-09-12T01:23:55;16660.78;;;14.99;100.00
33506;BME280;19843;51.040;13.782;2022-09-12T01:26:42;16996.53;;;14.98;100.00
33506;BME280;19843;51.040;13.782;2022-09-12T01:29:31;17328.38;;;14.85;100.00
33506;BME280;19843;51.040;13.782;2022-09-12T01:32:07;17326.50;;;14.79;100.00
33506;BME280;19843;51.040;13.782;2022-09-12T01:34:44;17325.88;;;14.77;100.00
33506;BME280;19843;51.040;13.782;2022-09-12T01:37:16;17658.50;;;14.67;100.00
33506;BME280;19843;51.040;13.782;2022-09-12T01:39:51;17656.75;;;14.61;100.00
33506;BME280;19843;51.040;13.782;2022-09-12T01:42:27;17657.56;;;14.64;100.00
33506;BME280;19843;51.040;13.782;2022-09-12T01:45:02;17322.41;;;14.66;100.00
33506;BME280;19843;51.040;13.782;2022-09-12T01:47:38;17321.47;;;14.63;100.00
33506;BME280;19843;51.040;13.782;2022-09-12T01:50:09;17323.66;;;14.70;100.00
33506;BME280;19843;51.040;13.782;2022-09-12T01:52:43;16654.75;;;14.78;100.00
33506;BME280;19843;51.040;13.782;2022-09-12T01:55:16;16988.84;;;14.73;100.00
33506;BME280;19843;51.040;13.782;2022-09-12T01:57:49;16654.00;;;14.76;100.00
33506;BME280;19843;51.040;13.782;2022-09-12T02:00:19;16987.44;;;14.68;100.00
33506;BME280;19843;51.040;13.782;2022-09-12T02:02:51;16986.06;;;14.64;100.00
33506;BME280;19843;51.040;13.782;2022-09-12T02:05:27;16986.06;;;14.64;100.00
33506;BME280;19843;51.040;13.782;2022-09-12T02:08:01;16986.22;;;14.64;100.00
33506;BME280;19843;51.040;13.782;2022-09-12T02:10:33;16985.00;;;14.60;100.00
33506;BME280;19843;51.040;13.782;2022-09-12T02:13:08;17652.78;;;14.49;100.00
33506;BME280;19843;51.040;13.782;2022-09-12T02:15:40;17652.00;;;14.46;100.00
33506;BME280;19843;51.040;13.782;2022-09-12T02:18:13;17319.44;;;14.56;100.00
33506;BME280;19843;51.040;13.782;2022-09-12T02:20:45;16985.59;;;14.62;100.00
33506;BME280;19843;51.040;13.782;2022-09-12T02:23:17;16984.84;;;14.60;100.00
33506;BME280;19843;51.040;13.782;2022-09-12T02:25:50;16650.53;;;14.64;100.00
33506;BME280;19843;51.040;13.782;2022-09-12T02:28:22;16983.59;;;14.56;100.00
33506;BME280;19843;51.040;13.782;2022-09-12T02:31:07;16649.31;;;14.60;100.00
33506;BME280;19843;51.040;13.782;2022-09-12T02:33:45;16648.56;;;14.58;100.00
33506;BME280;19843;51.040;13.782;2022-09-12T02:36:20;16651.28;;;14.67;100.00
33506;BME280;19843;51.040;13.782;2022-09-12T02:38:52;16649.63;;;14.61;100.00
33506;BME280;19843;51.040;13.782;2022-09-12T02:41:20;16651.59;;;14.68;100.00
33506;BME280;19843;51.040;13.782;2022-09-12T02:43:49;16983.16;;;14.54;100.00
33506;BME280;19843;51.040;13.782;2022-09-12T02:46:21;17316.31;;;14.46;100.00
33506;BME280;19843;51.040;13.782;2022-09-12T02:48:51;16982.06;;;14.51;100.00
33506;BME280;19843;51.040;13.782;2022-09-12T02:51:19;16981.75;;;14.50;100.00
33506;BME280;19843;51.040;13.782;2022-09-12T02:53:49;17314.75;;;14.41;100.00
33506;BME280;19843;51.040;13.782;2022-09-12T02:56:20;16982.69;;;14.53;100.00
33506;BME280;19843;51.040;13.782;2022-09-12T02:58:50;17647.69;;;14.32;100.00
33506;BME280;19843;51.040;13.782;2022-09-12T03:01:28;17314.44;;;14.40;100.00
33506;BME280;19843;51.040;13.782;2022-09-12T03:04:18;17981.38;;;14.26;100.00
33506;BME280;19843;51.040;13.782;2022-09-12T03:07:01;17980.41;;;14.23;100.00
33506;BME280;19843;51.040;13.782;2022-09-12T03:09:36;17980.72;;;14.24;100.00
33506;BME280;19843;51.040;13.782;2022-09-12T03:12:12;17647.06;;;14.30;100.00
33506;BME280;19843;51.040;13.782;2022-09-12T03:14:54;17312.88;;;14.35;100.00
33506;BME280;19843;51.040;13.782;2022-09-12T03:17:38;17647.53;;;14.32;100.00
33506;BME280;19843;51.040;13.782;2022-09-12T03:20:12;16979.91;;;14.44;100.00
33506;BME280;19843;51.040;13.782;2022-09-12T03:22:49;16981.47;;;14.49;100.00
33506;BME280;19843;51.040;13.782;2022-09-12T03:25:21;16646.16;;;14.50;100.00
33506;BME280;19843;51.040;13.782;2022-09-12T03:27:54;16981.00;;;14.47;100.00
33506;BME280;19843;51.040;13.782;2022-09-12T03:30:24;16647.34;;;14.54;100.00
33506;BME280;19843;51.040;13.782;2022-09-12T03:32:53;16981.63;;;14.49;100.00
33506;BME280;19843;51.040;13.782;2022-09-12T03:35:23;16647.50;;;14.54;100.00
33506;BME280;19843;51.040;13.782;2022-09-12T03:37:51;16315.91;;;14.68;100.00
33506;BME280;19843;51.040;13.782;2022-09-12T03:40:19;16317.09;;;14.72;100.00
33506;BME280;19843;51.040;13.782;2022-09-12T03:42:47;16651.28;;;14.67;100.00
33506;BME280;19843;51.040;13.782;2022-09-12T03:45:14;16651.44;;;14.67;100.00
33506;BME280;19843;51.040;13.782;2022-09-12T03:47:41;16984.84;;;14.60;100.00
33506;BME280;19843;51.040;13.782;2022-09-12T03:50:09;16985.00;;;14.60;100.00
33506;BME280;19843;51.040;13.782;2022-09-12T03:52:38;16652.78;;;14.72;100.00
33506;BME280;19843;51.040;13.782;2022-09-12T03:55:06;16652.50;;;14.71;100.00
33506;BME280;19843;51.040;13.782;2022-09-12T03:57:33;16984.38;;;14.58;100.00
33506;BME280;19843;51.040;13.782;2022-09-12T04:00:02;16987.00;;;14.67;100.00
33506;BME280;19843;51.040;13.782;2022-09-12T04:02:30;17318.97;;;14.55;100.00
33506;BME280;19843;51.040;13.782;2022-09-12T04:04:57;16984.84;;;14.60;100.00
33506;BME280;19843;51.040;13.782;2022-09-12T04:07:25;16985.16;;;14.61;100.00
33506;BME280;19843;51.040;13.782;2022-09-12T04:09:54;16986.06;;;14.64;100.00
33506;BME280;19843;51.040;13.782;2022-09-12T04:12:21;16652.63;;;14.71;100.00
33506;BME280;19843;51.040;13.782;2022-09-12T04:14:49;16317.53;;;14.73;100.00
33506;BME280;19843;51.040;13.782;2022-09-12T04:17:16;16650.69;;;14.65;100.00
33506;BME280;19843;51.040;13.782;2022-09-12T04:19:43;16650.97;;;14.66;100.00
33506;BME280;19843;51.040;13.782;2022-09-12T04:22:11;16984.38;;;14.58;100.00
33506;BME280;19843;51.040;13.782;2022-09-12T04:24:38;16650.06;;;14.63;100.00
33506;BME280;19843;51.040;13.782;2022-09-12T04:27:07;16650.06;;;14.63;100.00
33506;BME280;19843;51.040;13.782;2022-09-12T04:29:34;16650.53;;;14.64;100.00
33506;BME280;19843;51.040;13.782;2022-09-12T04:32:02;16650.69;;;14.65;100.00
33506;BME280;19843;51.040;13.782;2022-09-12T04:34:30;16314.56;;;14.63;100.00
33506;BME280;19843;51.040;13.782;2022-09-12T04:37:04;16649.47;;;14.61;100.00
33506;BME280;19843;51.040;13.782;2022-09-12T04:39:32;16315.91;;;14.68;100.00
33506;BME280;19843;51.040;13.782;2022-09-12T04:41:59;16315.00;;;14.65;100.00
33506;BME280;19843;51.040;13.782;2022-09-12T04:44:30;16649.16;;;14.60;100.00
33506;BME280;19843;51.040;13.782;2022-09-12T04:46:58;16315.31;;;14.66;100.00
33506;BME280;19843;51.040;13.782;2022-09-12T04:49:25;16315.91;;;14.68;100.00
33506;BME280;19843;51.040;13.782;2022-09-12T04:51:53;16317.53;;;14.73;100.00
33506;BME280;19843;51.040;13.782;2022-09-12T04:54:20;16315.59;;;14.67;100.00
33506;BME280;19843;51.040;13.782;2022-09-12T04:56:49;16316.50;;;14.70;100.00
33506;BME280;19843;51.040;13.782;2022-09-12T04:59:18;16315.91;;;14.68;100.00
33506;BME280;19843;51.040;13.782;2022-09-12T05:01:47;16315.91;;;14.68;100.00
33506;BME280;19843;51.040;13.782;2022-09-12T05:04:15;16317.38;;;14.73;100.00
33506;BME280;19843;51.040;13.782;2022-09-12T05:06:43;15983.16;;;14.78;100.00
33506;BME280;19843;51.040;13.782;2022-09-12T05:09:13;15983.16;;;14.78;100.00
33506;BME280;19843;51.040;13.782;2022-09-12T05:11:42;15984.31;;;14.82;100.00
33506;BME280;19843;51.040;13.782;2022-09-12T05:14:30;15317.19;;;14.97;100.00
33506;BME280;19843;51.040;13.782;2022-09-12T05:17:00;15654.63;;;15.03;100.00
33506;BME280;19843;51.040;13.782;2022-09-12T05:19:28;15653.78;;;15.00;100.00
33506;BME280;19843;51.040;13.782;2022-09-12T05:21:57;15654.50;;;15.03;100.00
33506;BME280;19843;51.040;13.782;2022-09-12T05:24:25;15655.91;;;15.08;100.00
33506;BME280;19843;51.040;13.782;2022-09-12T05:26:53;15657.91;;;15.15;100.00
33506;BME280;19843;51.040;13.782;2022-09-12T05:29:20;15659.78;;;15.21;100.00
33506;BME280;19843;51.040;13.782;2022-09-12T05:31:47;15659.63;;;15.21;100.00
33506;BME280;19843;51.040;13.782;2022-09-12T05:34:19;15663.78;;;15.36;100.00
33506;BME280;19843;51.040;13.782;2022-09-12T05:36:46;15664.19;;;15.37;100.00
33506;BME280;19843;51.040;13.782;2022-09-12T05:39:14;15663.78;;;15.36;100.00
33506;BME280;19843;51.040;13.782;2022-09-12T05:41:42;16669.41;;;15.28;100.00
33506;BME280;19843;51.040;13.782;2022-09-12T05:44:10;17008.66;;;15.38;100.00
33506;BME280;19843;51.040;13.782;2022-09-12T05:46:40;17010.97;;;15.46;100.00
33506;BME280;19843;51.040;13.782;2022-09-12T05:49:10;17348.09;;;15.49;100.00
33506;BME280;19843;51.040;13.782;2022-09-12T05:51:41;18357.34;;;15.50;100.00
33506;BME280;19843;51.040;13.782;2022-09-12T05:54:10;19032.09;;;15.56;100.00
33506;BME280;19843;51.040;13.782;2022-09-12T05:56:40;19705.91;;;15.59;100.00
33506;BME280;19843;51.040;13.782;2022-09-12T05:59:11;19708.34;;;15.66;100.00
33506;BME280;19843;51.040;13.782;2022-09-12T06:01:39;21053.28;;;15.62;100.00
33506;BME280;19843;51.040;13.782;2022-09-12T06:04:07;22069.25;;;15.77;100.00
33506;BME280;19843;51.040;13.782;2022-09-12T06:06:36;23417.06;;;15.78;100.00
33506;BME280;19843;51.040;13.782;2022-09-12T06:09:06;24428.38;;;15.78;100.00
33506;BME280;19843;51.040;13.782;2022-09-12T06:11:35;25438.00;;;15.74;100.00
33506;BME280;19843;51.040;13.782;2022-09-12T06:14:03;27126.13;;;15.78;100.00
33506;BME280;19843;51.040;13.782;2022-09-12T06:16:32;27132.28;;;15.91;100.00
33506;BME280;19843;51.040;13.782;2022-09-12T06:19:01;27469.72;;;15.91;100.00
33506;BME280;19843;51.040;13.782;2022-09-12T06:21:29;26801.88;;;16.07;100.00
33506;BME280;19843;51.040;13.782;2022-09-12T06:23:57;26802.81;;;16.09;100.00
33506;BME280;19843;51.040;13.782;2022-09-12T06:26:27;28829.59;;;16.11;100.00
33506;BME280;19843;51.040;13.782;2022-09-12T06:28:55;30863.41;;;16.24;100.00
33506;BME280;19843;51.040;13.782;2022-09-12T06:31:25;31541.34;;;16.28;100.00
33506;BME280;19843;51.040;13.782;2022-09-12T06:33:55;31881.06;;;16.31;100.00
33506;BME280;19843;51.040;13.782;2022-09-12T06:36:24;30870.34;;;16.37;100.00
33506;BME280;19843;51.040;13.782;2022-09-12T06:38:53;29863.31;;;16.51;100.00
33506;BME280;19843;51.040;13.782;2022-09-12T06:41:20;31219.47;;;16.58;100.00
33506;BME280;19843;51.040;13.782;2022-09-12T06:43:49;31897.06;;;16.60;100.00
33506;BME280;19843;51.040;13.782;2022-09-12T06:46:17;33930.00;;;16.65;100.00
33506;BME280;19843;51.040;13.782;2022-09-12T06:48:45;36641.41;;;16.68;100.00
33506;BME280;19843;51.040;13.782;2022-09-12T06:51:15;38334.22;;;16.66;100.00
33506;BME280;19843;51.040;13.782;2022-09-12T06:53:43;40375.16;;;16.75;100.00
33506;BME280;19843;51.040;13.782;2022-09-12T06:56:12;41740.88;;;16.87;100.00
33506;BME280;19843;51.040;13.782;2022-09-12T06:58:41;45122.25;;;16.68;100.00
33506;BME280;19843;51.040;13.782;2022-09-12T07:01:11;44787.19;;;16.74;100.00
33506;BME280;19843;51.040;13.782;2022-09-12T07:03:40;44457.38;;;16.87;100.00
33506;BME280;19843;51.040;13.782;2022-09-12T07:06:09;44115.06;;;16.84;100.00
33506;BME280;19843;51.040;13.782;2022-09-12T07:08:38;46161.00;;;16.94;100.00
33506;BME280;19843;51.040;13.782;2022-09-12T07:11:10;48206.78;;;17.01;100.00
33506;BME280;19843;51.040;13.782;2022-09-12T07:13:39;51269.50;;;17.01;100.00
33506;BME280;19843;51.040;13.782;2022-09-12T07:16:07;51616.97;;;17.09;100.00
33506;BME280;19843;51.040;13.782;2022-09-12T07:18:37;55024.97;;;17.10;100.00
33506;BME280;19843;51.040;13.782;2022-09-12T07:21:06;56724.06;;;17.04;100.00
33506;BME280;19843;51.040;13.782;2022-09-12T07:23:34;58763.91;;;16.97;100.00
33506;BME280;19843;51.040;13.782;2022-09-12T07:26:02;56362.56;;;16.82;100.00
33506;BME280;19843;51.040;13.782;2022-09-12T07:28:31;53314.66;;;17.03;100.00
33506;BME280;19843;51.040;13.782;2022-09-12T07:31:04;53333.19;;;17.23;100.00
33506;BME280;19843;51.040;13.782;2022-09-12T07:33:32;58115.94;;;17.32;100.00
33506;BME280;19843;51.040;13.782;2022-09-12T07:36:02;56772.03;;;17.54;100.00
33506;BME280;19843;51.040;13.782;2022-09-12T07:38:30;63945.38;;;17.53;100.00
33506;BME280;19843;51.040;13.782;2022-09-12T07:40:58;72851.25;;;17.54;100.00
33506;BME280;19843;51.040;13.782;2022-09-12T07:43:27;68759.53;;;17.72;100.00
33506;BME280;19843;51.040;13.782;2022-09-12T07:45:55;74260.63;;;17.85;100.00
33506;BME280;19843;51.040;13.782;2022-09-12T07:48:22;90737.78;;;17.60;100.00
33506;BME280;19843;51.040;13.782;2022-09-12T07:50:57;87308.97;;;17.71;100.00
33506;BME280;19843;51.040;13.782;2022-09-12T07:53:30;90103.50;;;17.97;100.00
33506;BME280;19843;51.040;13.782;2022-09-12T07:55:59;95673.97;;;18.27;100.00
33506;BME280;19843;51.040;13.782;2022-09-12T07:58:28;116779.41;;;18.06;100.00
33506;BME280;19843;51.040;13.782;2022-09-12T08:01:00;125156.34;;;18.19;100.00
33506;BME280;19843;51.040;13.782;2022-09-12T08:03:28;141220.16;;;18.18;100.00
33506;BME280;19843;51.040;13.782;2022-09-12T08:06:02;145390.34;;;18.04;100.00
33506;BME280;19843;51.040;13.782;2022-09-12T08:08:31;120988.22;;;18.24;100.00
33506;BME280;19843;51.040;13.782;2022-09-12T08:10:59;154537.69;;;18.15;100.00
33506;BME280;19843;51.040;13.782;2022-09-12T08:13:27;154605.03;;;18.41;100.00
33506;BME280;19843;51.040;13.782;2022-09-12T08:15:58;154538.97;;;18.15;100.00
33506;BME280;19843;51.040;13.782;2022-09-12T08:18:26;154494.94;;;17.98;100.00
33506;BME280;19843;51.040;13.782;2022-09-12T08:20:57;154528.63;;;18.11;100.00
33506;BME280;19843;51.040;13.782;2022-09-12T08:23:25;130011.09;;;18.06;100.00
33506;BME280;19843;51.040;13.782;2022-09-12T08:25:59;130724.28;;;18.13;100.00
33506;BME280;19843;51.040;13.782;2022-09-12T08:28:33;150360.59;;;18.11;100.00
33506;BME280;19843;51.040;13.782;2022-09-12T08:31:01;149836.78;;;18.12;100.00
33506;BME280;19843;51.040;13.782;2022-09-12T08:33:29;154527.34;;;18.11;100.00
33506;BME280;19843;51.040;13.782;2022-09-12T08:36:03;154550.63;;;18.20;100.00
33506;BME280;19843;51.040;13.782;2022-09-12T08:38:31;154597.28;;;18.38;100.00
33506;BME280;19843;51.040;13.782;2022-09-12T08:41:03;154612.84;;;18.44;100.00
33506;BME280;19843;51.040;13.782;2022-09-12T08:43:43;154575.22;;;18.30;100.00
33506;BME280;19843;51.040;13.782;2022-09-12T08:46:22;154544.19;;;18.18;100.00
33506;BME280;19843;51.040;13.782;2022-09-12T08:48:51;154632.22;;;18.52;100.00
33506;BME280;19843;51.040;13.782;2022-09-12T08:51:19;154625.78;;;18.49;100.00
33506;BME280;19843;51.040;13.782;2022-09-12T08:53:48;154516.97;;;18.07;100.00
33506;BME280;19843;51.040;13.782;2022-09-12T08:56:17;154516.97;;;18.07;100.00
33506;BME280;19843;51.040;13.782;2022-09-12T08:58:46;154662.09;;;18.64;100.00
33506;BME280;19843;51.040;13.782;2022-09-12T09:01:19;154750.22;;;18.98;100.00
33506;BME280;19843;51.040;13.782;2022-09-12T09:04:12;154861.66;;;19.41;100.00
33506;BME280;19843;51.040;13.782;2022-09-12T09:06:54;154917.44;;;19.63;100.00
33506;BME280;19843;51.040;13.782;2022-09-12T09:09:34;155025.06;;;20.05;100.00
33506;BME280;19843;51.040;13.782;2022-09-12T09:12:12;155056.19;;;20.17;100.00
33506;BME280;19843;51.040;13.782;2022-09-12T09:14:52;155187.25;;;20.69;100.00
33506;BME280;19843;51.040;13.782;2022-09-12T09:17:25;155100.38;;;20.35;100.00
33506;BME280;19843;51.040;13.782;2022-09-12T09:19:58;154988.75;;;19.91;100.00
33506;BME280;19843;51.040;13.782;2022-09-12T09:22:35;154993.97;;;19.93;100.00
33506;BME280;19843;51.040;13.782;2022-09-12T09:25:08;155000.44;;;19.96;100.00
33506;BME280;19843;51.040;13.782;2022-09-12T09:27:45;155041.94;;;20.12;100.00
33506;BME280;19843;51.040;13.782;2022-09-12T09:30:18;155056.19;;;20.17;100.00
33506;BME280;19843;51.040;13.782;2022-09-12T09:32:49;154951.19;;;19.76;100.00
33506;BME280;19843;51.040;13.782;2022-09-12T09:35:23;154912.28;;;19.61;100.00
33506;BME280;19843;51.040;13.782;2022-09-12T09:38:09;155030.25;;;20.07;100.00
33506;BME280;19843;51.040;13.782;2022-09-12T09:40:45;154978.41;;;19.87;100.00
33506;BME280;19843;51.040;13.782;2022-09-12T09:43:20;154960.22;;;19.80;100.00
33506;BME280;19843;51.040;13.782;2022-09-12T09:45:50;154929.09;;;19.68;100.00
33506;BME280;19843;51.040;13.782;2022-09-12T09:48:19;155128.91;;;20.46;100.00
33506;BME280;19843;51.040;13.782;2022-09-12T09:50:49;155191.16;;;20.70;100.00
33506;BME280;19843;51.040;13.782;2022-09-12T09:53:25;155211.88;;;20.78;100.00
33506;BME280;19843;51.040;13.782;2022-09-12T09:55:55;155302.75;;;21.14;100.00
33506;BME280;19843;51.040;13.782;2022-09-12T09:58:32;155313.19;;;21.18;100.00
33506;BME280;19843;51.040;13.782;2022-09-12T10:01:00;155196.34;;;20.72;100.00
33506;BME280;19843;51.040;13.782;2022-09-12T10:03:31;155209.34;;;20.77;100.00
33506;BME280;19843;51.040;13.782;2022-09-12T10:06:01;155185.94;;;20.68;100.00
33506;BME280;19843;51.040;13.782;2022-09-12T10:08:31;155391.03;;;21.48;100.00
33506;BME280;19843;51.040;13.782;2022-09-12T10:11:01;155358.63;;;21.35;100.00
33506;BME280;19843;51.040;13.782;2022-09-12T10:13:35;155515.72;;;21.97;100.00
33506;BME280;19843;51.040;13.782;2022-09-12T10:16:05;155310.56;;;21.17;100.00
33506;BME280;19843;51.040;13.782;2022-09-12T10:18:39;155256.00;;;20.95;100.00
33506;BME280;19843;51.040;13.782;2022-09-12T10:21:15;155230.06;;;20.85;100.00
33506;BME280;19843;51.040;13.782;2022-09-12T10:23:43;155191.16;;;20.70;100.00
33506;BME280;19843;51.040;13.782;2022-09-12T10:26:13;155227.47;;;20.84;100.00
33506;BME280;19843;51.040;13.782;2022-09-12T10:28:45;155139.25;;;20.50;100.00
33506;BME280;19843;51.040;13.782;2022-09-12T10:31:16;155157.41;;;20.57;100.00
33506;BME280;19843;51.040;13.782;2022-09-12T10:33:56;155078.22;;;20.26;100.00
33506;BME280;19843;51.040;13.782;2022-09-12T10:36:34;155036.72;;;20.10;100.00
33506;BME280;19843;51.040;13.782;2022-09-12T10:39:03;155065.25;;;20.21;100.00
33506;BME280;19843;51.040;13.782;2022-09-12T10:41:35;155063.97;;;20.20;100.00
33506;BME280;19843;51.040;13.782;2022-09-12T10:44:14;155092.56;;;20.32;100.00
33506;BME280;19843;51.040;13.782;2022-09-12T10:46:42;155127.59;;;20.45;100.00
33506;BME280;19843;51.040;13.782;2022-09-12T10:49:24;155108.13;;;20.38;100.00
33506;BME280;19843;51.040;13.782;2022-09-12T10:51:53;155123.69;;;20.44;100.00
33506;BME280;19843;51.040;13.782;2022-09-12T10:54:23;155125.00;;;20.44;100.00
33506;BME280;19843;51.040;13.782;2022-09-12T10:57:02;155154.84;;;20.56;100.00
33506;BME280;19843;51.040;13.782;2022-09-12T10:59:41;155187.25;;;20.69;100.00
33506;BME280;19843;51.040;13.782;2022-09-12T11:02:14;155205.44;;;20.76;100.00
33506;BME280;19843;51.040;13.782;2022-09-12T11:04:58;155328.75;;;21.24;100.00
33506;BME280;19843;51.040;13.782;2022-09-12T11:07:36;155440.41;;;21.67;100.00
33506;BME280;19843;51.040;13.782;2022-09-12T11:10:17;155511.81;;;21.95;100.00
33506;BME280;19843;51.040;13.782;2022-09-12T11:12:51;155404.03;;;21.53;100.00
33506;BME280;19843;51.040;13.782;2022-09-12T11:15:37;155442.97;;;21.68;100.00
33506;BME280;19843;51.040;13.782;2022-09-12T11:18:16;155536.53;;;22.05;100.00
33506;BME280;19843;51.040;13.782;2022-09-12T11:21:11;155468.91;;;21.78;100.00
33506;BME280;19843;51.040;13.782;2022-09-12T11:24:00;155567.69;;;22.17;100.00
33506;BME280;19843;51.040;13.782;2022-09-12T11:26:42;155656.00;;;22.51;100.00
33506;BME280;19843;51.040;13.782;2022-09-12T11:29:19;155710.63;;;22.72;100.00
33506;BME280;19843;51.040;13.782;2022-09-12T11:32:04;155676.78;;;22.59;100.00
33506;BME280;19843;51.040;13.782;2022-09-12T11:34:42;155588.47;;;22.25;100.00
33506;BME280;19843;51.040;13.782;2022-09-12T11:37:26;155684.59;;;22.62;100.00
33506;BME280;19843;51.040;13.782;2022-09-12T11:40:01;155627.44;;;22.40;100.00
33506;BME280;19843;51.040;13.782;2022-09-12T11:42:36;155772.97;;;22.97;100.00
33506;BME280;19843;51.040;13.782;2022-09-12T11:45:12;155570.28;;;22.18;100.00
33506;BME280;19843;51.040;13.782;2022-09-12T11:47:47;155528.72;;;22.02;100.00
33506;BME280;19843;51.040;13.782;2022-09-12T11:50:20;155674.16;;;22.58;100.00
33506;BME280;19843;51.040;13.782;2022-09-12T11:52:51;155631.34;;;22.42;100.00
33506;BME280;19843;51.040;13.782;2022-09-12T11:55:24;155770.38;;;22.96;100.00
33506;BME280;19843;51.040;13.782;2022-09-12T11:57:55;155806.78;;;23.10;100.00
33506;BME280;19843;51.040;13.782;2022-09-12T12:00:31;155674.16;;;22.58;100.00
33506;BME280;19843;51.040;13.782;2022-09-12T12:03:08;155648.19;;;22.48;100.00
33506;BME280;19843;51.040;13.782;2022-09-12T12:05:42;155624.81;;;22.39;100.00
33506;BME280;19843;51.040;13.782;2022-09-12T12:08:12;155708.03;;;22.71;100.00
33506;BME280;19843;51.040;13.782;2022-09-12T12:10:42;155440.41;;;21.67;100.00
33506;BME280;19843;51.040;13.782;2022-09-12T12:13:17;155436.50;;;21.66;100.00
33506;BME280;19843;51.040;13.782;2022-09-12T12:15:47;155432.59;;;21.64;100.00
33506;BME280;19843;51.040;13.782;2022-09-12T12:18:21;155397.56;;;21.51;100.00
33506;BME280;19843;51.040;13.782;2022-09-12T12:20:50;155415.69;;;21.58;100.00
33506;BME280;19843;51.040;13.782;2022-09-12T12:23:28;155468.91;;;21.78;100.00
33506;BME280;19843;51.040;13.782;2022-09-12T12:25:59;155370.28;;;21.40;100.00
33506;BME280;19843;51.040;13.782;2022-09-12T12:28:54;155350.81;;;21.32;100.00
33506;BME280;19843;51.040;13.782;2022-09-12T12:31:22;155313.19;;;21.18;100.00
33506;BME280;19843;51.040;13.782;2022-09-12T12:33:53;155400.16;;;21.52;100.00
33506;BME280;19843;51.040;13.782;2022-09-12T12:36:34;155432.59;;;21.64;100.00
33506;BME280;19843;51.040;13.782;2022-09-12T12:48:53;155643.03;;;22.46;100.00
33506;BME280;19843;51.040;13.782;2022-09-12T12:51:42;155581.97;;;22.22;100.00
33506;BME280;19843;51.040;13.782;2022-09-12T12:54:33;155605.31;;;22.31;100.00
33506;BME280;19843;51.040;13.782;2022-09-12T12:57:17;155549.53;;;22.10;100.00
33506;BME280;19843;51.040;13.782;2022-09-12T12:59:48;155510.53;;;21.95;100.00
33506;BME280;19843;51.040;13.782;2022-09-12T13:02:24;155393.66;;;21.49;100.00
33506;BME280;19843;51.040;13.782;2022-09-12T13:04:55;155435.19;;;21.65;100.00
33506;BME280;19843;51.040;13.782;2022-09-12T13:07:30;155476.75;;;21.81;100.00
33506;BME280;19843;51.040;13.782;2022-09-12T13:10:00;155566.38;;;22.16;100.00